CA-0005 weather

CLOSED RCAF Station Lincoln Park
Calgary, Alberta, Canada

Public forecast

Using degrees Celsius for public forecast. Weather courtesy of forecast.io.

Closest aviation weather report (METAR) to RCAF Station Lincoln Park

Closest report is Calgary International Airport, 7.6 nm (14.0 km) NE. Retrieved 2020/01/17 15:29 UTC (0 seconds ago):

CYYC 171529Z 33009G15KT 9SM OVC013 M25/M30 A2993 RMK SC8 SLP262

Closest aviation forecast (TAF) to RCAF Station Lincoln Park

Closest forecast is Calgary International Airport, 7.6 nm (14.0 km) NE. Retrieved 2020/01/17 15:39 UTC (0 seconds ago):

TAF CYYC 171438Z 1715/1812 35012KT 6SM IC BR OVC025 TEMPO 1715/1717 5SM -SN IC BR SCT012 OVC020 FM171700 35008KT P6SM SCT025 BKN160 TEMPO 1717/1721 5SM IC BKN020 BKN160 FM172100 34006KT P6SM FEW015 SCT080 RMK NXT FCST BY 171800Z